sensor_id;sensor_type;location;lat;lon;timestamp;P1;durP1;ratioP1;P2;durP2;ratioP2
3949;SDS011;53057;50.988;6.314;2022-07-30T00:01:31;10.50;;;9.50;;
3949;SDS011;53057;50.988;6.314;2022-07-30T00:04:01;12.43;;;9.53;;
3949;SDS011;53057;50.988;6.314;2022-07-30T00:06:28;15.10;;;9.27;;
3949;SDS011;53057;50.988;6.314;2022-07-30T00:08:55;18.83;;;11.50;;
3949;SDS011;53057;50.988;6.314;2022-07-30T00:11:21;23.90;;;10.50;;
3949;SDS011;53057;50.988;6.314;2022-07-30T00:13:53;13.40;;;9.90;;
3949;SDS011;53057;50.988;6.314;2022-07-30T00:16:20;15.70;;;9.87;;
3949;SDS011;53057;50.988;6.314;2022-07-30T00:18:47;13.33;;;10.33;;
3949;SDS011;53057;50.988;6.314;2022-07-30T00:21:13;17.10;;;12.00;;
3949;SDS011;53057;50.988;6.314;2022-07-30T00:24:00;12.13;;;10.40;;
3949;SDS011;53057;50.988;6.314;2022-07-30T00:26:28;13.37;;;10.43;;
3949;SDS011;53057;50.988;6.314;2022-07-30T00:28:55;14.67;;;11.13;;
3949;SDS011;53057;50.988;6.314;2022-07-30T00:31:22;16.63;;;11.87;;
3949;SDS011;53057;50.988;6.314;2022-07-30T00:33:48;17.27;;;11.80;;
3949;SDS011;53057;50.988;6.314;2022-07-30T00:36:15;18.53;;;12.70;;
3949;SDS011;53057;50.988;6.314;2022-07-30T00:38:42;18.63;;;11.47;;
3949;SDS011;53057;50.988;6.314;2022-07-30T00:41:09;14.13;;;11.83;;
3949;SDS011;53057;50.988;6.314;2022-07-30T00:43:35;13.80;;;10.33;;
3949;SDS011;53057;50.988;6.314;2022-07-30T00:46:03;22.90;;;11.77;;
3949;SDS011;53057;50.988;6.314;2022-07-30T00:48:32;19.07;;;12.00;;
3949;SDS011;53057;50.988;6.314;2022-07-30T00:50:59;13.80;;;10.97;;
3949;SDS011;53057;50.988;6.314;2022-07-30T00:53:26;14.70;;;10.97;;
3949;SDS011;53057;50.988;6.314;2022-07-30T00:55:53;10.80;;;9.70;;
3949;SDS011;53057;50.988;6.314;2022-07-30T00:58:19;13.60;;;10.43;;
3949;SDS011;53057;50.988;6.314;2022-07-30T01:00:47;14.33;;;9.90;;
3949;SDS011;53057;50.988;6.314;2022-07-30T01:03:14;14.80;;;10.97;;
3949;SDS011;53057;50.988;6.314;2022-07-30T01:05:41;20.40;;;11.90;;
3949;SDS011;53057;50.988;6.314;2022-07-30T01:08:07;18.53;;;11.23;;
3949;SDS011;53057;50.988;6.314;2022-07-30T01:10:34;15.23;;;9.97;;
3949;SDS011;53057;50.988;6.314;2022-07-30T01:13:02;17.20;;;11.70;;
3949;SDS011;53057;50.988;6.314;2022-07-30T01:15:29;20.63;;;10.23;;
3949;SDS011;53057;50.988;6.314;2022-07-30T01:17:56;18.20;;;12.40;;
3949;SDS011;53057;50.988;6.314;2022-07-30T01:21:08;21.07;;;11.67;;
3949;SDS011;53057;50.988;6.314;2022-07-30T01:23:22;17.57;;;12.00;;
3949;SDS011;53057;50.988;6.314;2022-07-30T01:25:54;18.03;;;11.47;;
3949;SDS011;53057;50.988;6.314;2022-07-30T01:28:23;12.23;;;11.03;;
3949;SDS011;53057;50.988;6.314;2022-07-30T01:30:51;18.03;;;12.57;;
3949;SDS011;53057;50.988;6.314;2022-07-30T01:33:19;16.43;;;10.93;;
3949;SDS011;53057;50.988;6.314;2022-07-30T01:35:47;17.83;;;11.70;;
3949;SDS011;53057;50.988;6.314;2022-07-30T01:38:14;17.57;;;12.30;;
3949;SDS011;53057;50.988;6.314;2022-07-30T01:40:43;15.77;;;12.30;;
3949;SDS011;53057;50.988;6.314;2022-07-30T01:43:10;20.93;;;12.47;;
3949;SDS011;53057;50.988;6.314;2022-07-30T01:45:38;20.97;;;12.23;;
3949;SDS011;53057;50.988;6.314;2022-07-30T01:48:10;17.20;;;12.83;;
3949;SDS011;53057;50.988;6.314;2022-07-30T01:50:40;16.30;;;13.20;;
3949;SDS011;53057;50.988;6.314;2022-07-30T01:53:18;22.07;;;13.67;;
3949;SDS011;53057;50.988;6.314;2022-07-30T01:55:46;15.70;;;11.40;;
3949;SDS011;53057;50.988;6.314;2022-07-30T01:58:15;25.70;;;11.90;;
3949;SDS011;53057;50.988;6.314;2022-07-30T02:00:44;17.43;;;12.20;;
3949;SDS011;53057;50.988;6.314;2022-07-30T02:03:11;16.07;;;12.13;;
3949;SDS011;53057;50.988;6.314;2022-07-30T02:05:39;16.67;;;13.90;;
3949;SDS011;53057;50.988;6.314;2022-07-30T02:10:53;25.60;;;12.40;;
3949;SDS011;53057;50.988;6.314;2022-07-30T02:13:25;17.47;;;13.73;;
3949;SDS011;53057;50.988;6.314;2022-07-30T02:18:30;27.87;;;13.73;;
3949;SDS011;53057;50.988;6.314;2022-07-30T02:21:02;22.50;;;15.53;;
3949;SDS011;53057;50.988;6.314;2022-07-30T02:23:34;18.03;;;13.87;;
3949;SDS011;53057;50.988;6.314;2022-07-30T02:26:01;29.60;;;15.30;;
3949;SDS011;53057;50.988;6.314;2022-07-30T02:28:29;16.10;;;14.07;;
3949;SDS011;53057;50.988;6.314;2022-07-30T02:30:59;18.63;;;14.10;;
3949;SDS011;53057;50.988;6.314;2022-07-30T02:33:30;16.43;;;12.60;;
3949;SDS011;53057;50.988;6.314;2022-07-30T02:35:59;17.80;;;15.27;;
3949;SDS011;53057;50.988;6.314;2022-07-30T02:38:36;23.00;;;13.90;;
3949;SDS011;53057;50.988;6.314;2022-07-30T02:41:04;23.70;;;15.50;;
3949;SDS011;53057;50.988;6.314;2022-07-30T02:43:36;26.20;;;15.33;;
3949;SDS011;53057;50.988;6.314;2022-07-30T02:46:06;16.73;;;13.17;;
3949;SDS011;53057;50.988;6.314;2022-07-30T02:49:01;22.27;;;14.10;;
3949;SDS011;53057;50.988;6.314;2022-07-30T02:51:28;29.27;;;13.63;;
3949;SDS011;53057;50.988;6.314;2022-07-30T02:53:57;23.40;;;14.10;;
3949;SDS011;53057;50.988;6.314;2022-07-30T02:56:24;25.73;;;15.40;;
3949;SDS011;53057;50.988;6.314;2022-07-30T02:58:51;25.00;;;14.47;;
3949;SDS011;53057;50.988;6.314;2022-07-30T03:01:18;20.00;;;14.87;;
3949;SDS011;53057;50.988;6.314;2022-07-30T03:03:47;27.37;;;14.90;;
3949;SDS011;53057;50.988;6.314;2022-07-30T03:06:14;29.60;;;16.67;;
3949;SDS011;53057;50.988;6.314;2022-07-30T03:08:41;27.93;;;17.10;;
3949;SDS011;53057;50.988;6.314;2022-07-30T03:11:12;34.10;;;16.70;;
3949;SDS011;53057;50.988;6.314;2022-07-30T03:13:39;27.80;;;15.13;;
3949;SDS011;53057;50.988;6.314;2022-07-30T03:16:06;31.57;;;16.10;;
3949;SDS011;53057;50.988;6.314;2022-07-30T03:18:35;27.10;;;17.30;;
3949;SDS011;53057;50.988;6.314;2022-07-30T03:21:02;26.17;;;17.53;;
3949;SDS011;53057;50.988;6.314;2022-07-30T03:23:33;28.90;;;16.67;;
3949;SDS011;53057;50.988;6.314;2022-07-30T03:26:02;23.07;;;16.40;;
3949;SDS011;53057;50.988;6.314;2022-07-30T03:28:31;35.83;;;18.07;;
3949;SDS011;53057;50.988;6.314;2022-07-30T03:30:58;27.97;;;17.00;;
3949;SDS011;53057;50.988;6.314;2022-07-30T03:33:30;27.53;;;17.70;;
3949;SDS011;53057;50.988;6.314;2022-07-30T03:36:04;30.20;;;17.70;;
3949;SDS011;53057;50.988;6.314;2022-07-30T03:38:32;31.63;;;19.77;;
3949;SDS011;53057;50.988;6.314;2022-07-30T03:41:03;36.97;;;19.87;;
3949;SDS011;53057;50.988;6.314;2022-07-30T03:43:31;26.73;;;19.30;;
3949;SDS011;53057;50.988;6.314;2022-07-30T03:46:05;29.77;;;18.40;;
3949;SDS011;53057;50.988;6.314;2022-07-30T03:48:36;33.90;;;19.60;;
3949;SDS011;53057;50.988;6.314;2022-07-30T03:51:05;43.87;;;18.60;;
3949;SDS011;53057;50.988;6.314;2022-07-30T03:53:32;39.97;;;19.50;;
3949;SDS011;53057;50.988;6.314;2022-07-30T03:56:35;23.07;;;18.27;;
3949;SDS011;53057;50.988;6.314;2022-07-30T03:59:25;36.37;;;17.60;;
3949;SDS011;53057;50.988;6.314;2022-07-30T04:01:52;31.63;;;18.30;;
3949;SDS011;53057;50.988;6.314;2022-07-30T04:04:41;37.00;;;21.93;;
3949;SDS011;53057;50.988;6.314;2022-07-30T04:07:08;33.60;;;20.43;;
3949;SDS011;53057;50.988;6.314;2022-07-30T04:09:35;26.07;;;18.70;;
3949;SDS011;53057;50.988;6.314;2022-07-30T04:12:19;29.77;;;16.80;;
3949;SDS011;53057;50.988;6.314;2022-07-30T04:14:46;26.30;;;17.50;;
3949;SDS011;53057;50.988;6.314;2022-07-30T04:17:35;39.83;;;17.33;;
3949;SDS011;53057;50.988;6.314;2022-07-30T04:20:11;32.77;;;18.17;;
3949;SDS011;53057;50.988;6.314;2022-07-30T04:22:45;26.23;;;18.37;;
3949;SDS011;53057;50.988;6.314;2022-07-30T04:25:12;34.30;;;20.20;;
3949;SDS011;53057;50.988;6.314;2022-07-30T04:27:50;37.97;;;19.13;;
3949;SDS011;53057;50.988;6.314;2022-07-30T04:30:30;36.53;;;20.20;;
3949;SDS011;53057;50.988;6.314;2022-07-30T04:33:02;25.07;;;19.33;;
3949;SDS011;53057;50.988;6.314;2022-07-30T04:35:49;37.87;;;19.27;;
3949;SDS011;53057;50.988;6.314;2022-07-30T04:38:30;31.87;;;20.43;;
3949;SDS011;53057;50.988;6.314;2022-07-30T04:40:57;34.13;;;19.90;;
3949;SDS011;53057;50.988;6.314;2022-07-30T04:43:27;43.70;;;21.10;;
3949;SDS011;53057;50.988;6.314;2022-07-30T04:45:53;29.10;;;21.17;;
3949;SDS011;53057;50.988;6.314;2022-07-30T04:48:20;43.10;;;23.60;;
3949;SDS011;53057;50.988;6.314;2022-07-30T04:50:48;42.37;;;26.17;;
3949;SDS011;53057;50.988;6.314;2022-07-30T04:53:17;48.93;;;26.47;;
3949;SDS011;53057;50.988;6.314;2022-07-30T04:55:53;52.70;;;26.60;;
3949;SDS011;53057;50.988;6.314;2022-07-30T04:58:24;55.70;;;28.20;;
3949;SDS011;53057;50.988;6.314;2022-07-30T05:00:51;54.17;;;31.13;;
3949;SDS011;53057;50.988;6.314;2022-07-30T05:03:24;64.47;;;29.43;;
3949;SDS011;53057;50.988;6.314;2022-07-30T05:05:52;55.43;;;28.37;;
3949;SDS011;53057;50.988;6.314;2022-07-30T05:08:24;78.90;;;34.50;;
3949;SDS011;53057;50.988;6.314;2022-07-30T05:10:52;81.63;;;35.83;;
3949;SDS011;53057;50.988;6.314;2022-07-30T05:13:19;96.37;;;35.93;;
3949;SDS011;53057;50.988;6.314;2022-07-30T05:15:48;78.27;;;37.10;;
3949;SDS011;53057;50.988;6.314;2022-07-30T05:18:16;78.73;;;35.20;;
3949;SDS011;53057;50.988;6.314;2022-07-30T05:20:45;71.93;;;35.67;;
3949;SDS011;53057;50.988;6.314;2022-07-30T05:23:18;72.20;;;33.00;;
3949;SDS011;53057;50.988;6.314;2022-07-30T05:26:05;79.13;;;34.43;;
3949;SDS011;53057;50.988;6.314;2022-07-30T05:28:40;68.73;;;31.60;;
3949;SDS011;53057;50.988;6.314;2022-07-30T05:31:11;59.20;;;32.07;;
3949;SDS011;53057;50.988;6.314;2022-07-30T05:33:40;62.30;;;34.57;;
3949;SDS011;53057;50.988;6.314;2022-07-30T05:36:11;70.00;;;33.40;;
3949;SDS011;53057;50.988;6.314;2022-07-30T05:38:41;66.23;;;32.53;;
3949;SDS011;53057;50.988;6.314;2022-07-30T05:41:26;86.87;;;35.20;;
3949;SDS011;53057;50.988;6.314;2022-07-30T05:44:18;70.87;;;34.83;;
3949;SDS011;53057;50.988;6.314;2022-07-30T05:46:50;81.47;;;38.90;;
3949;SDS011;53057;50.988;6.314;2022-07-30T05:49:17;74.60;;;34.03;;
3949;SDS011;53057;50.988;6.314;2022-07-30T05:51:44;77.73;;;32.53;;
3949;SDS011;53057;50.988;6.314;2022-07-30T05:54:11;59.93;;;32.00;;
3949;SDS011;53057;50.988;6.314;2022-07-30T05:56:58;68.50;;;31.93;;
3949;SDS011;53057;50.988;6.314;2022-07-30T05:59:30;73.53;;;31.90;;
3949;SDS011;53057;50.988;6.314;2022-07-30T06:02:00;66.20;;;34.40;;
3949;SDS011;53057;50.988;6.314;2022-07-30T06:04:47;66.43;;;33.17;;
3949;SDS011;53057;50.988;6.314;2022-07-30T06:07:15;74.37;;;36.50;;
3949;SDS011;53057;50.988;6.314;2022-07-30T06:09:42;69.10;;;33.47;;
3949;SDS011;53057;50.988;6.314;2022-07-30T06:12:09;56.00;;;34.33;;
3949;SDS011;53057;50.988;6.314;2022-07-30T06:14:36;61.33;;;35.93;;
3949;SDS011;53057;50.988;6.314;2022-07-30T06:17:04;60.07;;;34.33;;
3949;SDS011;53057;50.988;6.314;2022-07-30T06:19:51;73.87;;;35.80;;
3949;SDS011;53057;50.988;6.314;2022-07-30T06:22:20;72.40;;;36.87;;
3949;SDS011;53057;50.988;6.314;2022-07-30T06:24:52;69.00;;;38.70;;
3949;SDS011;53057;50.988;6.314;2022-07-30T06:27:22;48.77;;;32.13;;
3949;SDS011;53057;50.988;6.314;2022-07-30T06:29:51;59.40;;;36.30;;
3949;SDS011;53057;50.988;6.314;2022-07-30T06:32:19;59.73;;;33.63;;
3949;SDS011;53057;50.988;6.314;2022-07-30T06:34:46;82.87;;;32.37;;
3949;SDS011;53057;50.988;6.314;2022-07-30T06:37:13;59.67;;;32.40;;
3949;SDS011;53057;50.988;6.314;2022-07-30T06:39:41;60.40;;;30.37;;
3949;SDS011;53057;50.988;6.314;2022-07-30T06:43:02;50.20;;;28.63;;
3949;SDS011;53057;50.988;6.314;2022-07-30T06:45:55;47.07;;;29.73;;
3949;SDS011;53057;50.988;6.314;2022-07-30T06:48:23;54.97;;;33.80;;
3949;SDS011;53057;50.988;6.314;2022-07-30T06:50:51;56.53;;;34.03;;
3949;SDS011;53057;50.988;6.314;2022-07-30T06:53:18;55.50;;;33.77;;
3949;SDS011;53057;50.988;6.314;2022-07-30T06:56:23;66.73;;;30.47;;
3949;SDS011;53057;50.988;6.314;2022-07-30T06:58:55;52.00;;;30.40;;
3949;SDS011;53057;50.988;6.314;2022-07-30T07:01:40;56.10;;;29.23;;
3949;SDS011;53057;50.988;6.314;2022-07-30T07:04:07;52.63;;;29.27;;
3949;SDS011;53057;50.988;6.314;2022-07-30T07:06:37;46.97;;;25.67;;
3949;SDS011;53057;50.988;6.314;2022-07-30T07:09:04;37.83;;;25.20;;
3949;SDS011;53057;50.988;6.314;2022-07-30T07:11:58;44.93;;;27.80;;
3949;SDS011;53057;50.988;6.314;2022-07-30T07:14:25;42.80;;;26.30;;
3949;SDS011;53057;50.988;6.314;2022-07-30T07:16:52;36.37;;;25.20;;
3949;SDS011;53057;50.988;6.314;2022-07-30T07:19:37;57.03;;;27.40;;
3949;SDS011;53057;50.988;6.314;2022-07-30T07:22:25;42.87;;;26.33;;
3949;SDS011;53057;50.988;6.314;2022-07-30T07:24:52;39.27;;;25.43;;
3949;SDS011;53057;50.988;6.314;2022-07-30T07:27:23;50.13;;;26.73;;
3949;SDS011;53057;50.988;6.314;2022-07-30T07:29:54;51.90;;;27.33;;
3949;SDS011;53057;50.988;6.314;2022-07-30T07:32:33;51.10;;;25.23;;
3949;SDS011;53057;50.988;6.314;2022-07-30T07:35:00;41.90;;;25.90;;
3949;SDS011;53057;50.988;6.314;2022-07-30T07:37:27;45.40;;;26.87;;
3949;SDS011;53057;50.988;6.314;2022-07-30T07:39:54;43.00;;;25.60;;
3949;SDS011;53057;50.988;6.314;2022-07-30T07:42:20;45.07;;;24.93;;
3949;SDS011;53057;50.988;6.314;2022-07-30T07:44:48;47.73;;;24.97;;
3949;SDS011;53057;50.988;6.314;2022-07-30T07:47:16;48.40;;;26.07;;
3949;SDS011;53057;50.988;6.314;2022-07-30T07:49:53;39.87;;;27.17;;
3949;SDS011;53057;50.988;6.314;2022-07-30T07:52:21;51.87;;;28.80;;
3949;SDS011;53057;50.988;6.314;2022-07-30T07:54:48;42.07;;;26.57;;
3949;SDS011;53057;50.988;6.314;2022-07-30T07:57:16;52.50;;;29.87;;
3949;SDS011;53057;50.988;6.314;2022-07-30T07:59:45;37.77;;;23.83;;
3949;SDS011;53057;50.988;6.314;2022-07-30T08:02:19;52.53;;;27.60;;
3949;SDS011;53057;50.988;6.314;2022-07-30T08:04:56;44.93;;;24.10;;
3949;SDS011;53057;50.988;6.314;2022-07-30T08:07:43;32.47;;;21.93;;
3949;SDS011;53057;50.988;6.314;2022-07-30T08:10:29;31.23;;;20.30;;
3949;SDS011;53057;50.988;6.314;2022-07-30T08:12:55;31.67;;;22.10;;
3949;SDS011;53057;50.988;6.314;2022-07-30T08:15:41;28.27;;;19.77;;
3949;SDS011;53057;50.988;6.314;2022-07-30T08:18:34;30.97;;;19.00;;
3949;SDS011;53057;50.988;6.314;2022-07-30T08:21:17;28.93;;;19.17;;
3949;SDS011;53057;50.988;6.314;2022-07-30T08:23:44;26.70;;;17.40;;
3949;SDS011;53057;50.988;6.314;2022-07-30T08:26:10;30.30;;;18.10;;
3949;SDS011;53057;50.988;6.314;2022-07-30T08:28:37;29.23;;;16.60;;
3949;SDS011;53057;50.988;6.314;2022-07-30T08:31:06;30.03;;;18.20;;
3949;SDS011;53057;50.988;6.314;2022-07-30T08:33:36;35.13;;;18.60;;
3949;SDS011;53057;50.988;6.314;2022-07-30T08:36:03;36.13;;;19.07;;
3949;SDS011;53057;50.988;6.314;2022-07-30T08:38:37;28.10;;;16.63;;
3949;SDS011;53057;50.988;6.314;2022-07-30T08:41:04;28.10;;;15.53;;
3949;SDS011;53057;50.988;6.314;2022-07-30T08:43:30;28.43;;;15.30;;
3949;SDS011;53057;50.988;6.314;2022-07-30T08:45:58;29.23;;;14.03;;
3949;SDS011;53057;50.988;6.314;2022-07-30T08:48:43;19.80;;;11.63;;
3949;SDS011;53057;50.988;6.314;2022-07-30T08:51:12;16.67;;;12.20;;
3949;SDS011;53057;50.988;6.314;2022-07-30T08:54:03;27.67;;;12.60;;
3949;SDS011;53057;50.988;6.314;2022-07-30T08:56:31;22.37;;;12.30;;
3949;SDS011;53057;50.988;6.314;2022-07-30T08:58:58;19.47;;;13.23;;
3949;SDS011;53057;50.988;6.314;2022-07-30T09:01:25;22.67;;;14.97;;
3949;SDS011;53057;50.988;6.314;2022-07-30T09:03:55;27.87;;;14.80;;
3949;SDS011;53057;50.988;6.314;2022-07-30T09:06:24;18.80;;;12.37;;
3949;SDS011;53057;50.988;6.314;2022-07-30T09:08:50;17.27;;;11.70;;
3949;SDS011;53057;50.988;6.314;2022-07-30T09:11:17;22.13;;;11.27;;
3949;SDS011;53057;50.988;6.314;2022-07-30T09:13:44;15.20;;;10.47;;
3949;SDS011;53057;50.988;6.314;2022-07-30T09:16:22;15.13;;;10.03;;
3949;SDS011;53057;50.988;6.314;2022-07-30T09:18:51;18.87;;;11.87;;
3949;SDS011;53057;50.988;6.314;2022-07-30T09:21:23;23.73;;;12.90;;
3949;SDS011;53057;50.988;6.314;2022-07-30T09:24:07;18.57;;;10.93;;
3949;SDS011;53057;50.988;6.314;2022-07-30T09:27:06;14.17;;;9.80;;
3949;SDS011;53057;50.988;6.314;2022-07-30T09:29:48;21.20;;;10.20;;
3949;SDS011;53057;50.988;6.314;2022-07-30T09:32:51;24.93;;;10.40;;
3949;SDS011;53057;50.988;6.314;2022-07-30T09:35:38;13.77;;;9.60;;
3949;SDS011;53057;50.988;6.314;2022-07-30T09:38:08;16.23;;;9.27;;
3949;SDS011;53057;50.988;6.314;2022-07-30T09:40:51;12.07;;;9.33;;
3949;SDS011;53057;50.988;6.314;2022-07-30T09:43:40;18.53;;;10.43;;
3949;SDS011;53057;50.988;6.314;2022-07-30T09:46:10;19.23;;;9.00;;
3949;SDS011;53057;50.988;6.314;2022-07-30T09:48:37;9.97;;;8.17;;
3949;SDS011;53057;50.988;6.314;2022-07-30T09:51:08;13.87;;;9.83;;
3949;SDS011;53057;50.988;6.314;2022-07-30T09:53:53;18.57;;;10.27;;
3949;SDS011;53057;50.988;6.314;2022-07-30T09:56:25;11.47;;;7.40;;
3949;SDS011;53057;50.988;6.314;2022-07-30T09:58:57;16.30;;;8.13;;
3949;SDS011;53057;50.988;6.314;2022-07-30T10:01:24;16.27;;;7.60;;
3949;SDS011;53057;50.988;6.314;2022-07-30T10:04:46;15.57;;;8.87;;
3949;SDS011;53057;50.988;6.314;2022-07-30T10:07:16;11.27;;;8.10;;
3949;SDS011;53057;50.988;6.314;2022-07-30T10:09:55;11.00;;;8.13;;
3949;SDS011;53057;50.988;6.314;2022-07-30T10:12:26;11.07;;;5.60;;
3949;SDS011;53057;50.988;6.314;2022-07-30T10:14:55;12.23;;;6.37;;
3949;SDS011;53057;50.988;6.314;2022-07-30T10:17:23;10.53;;;6.23;;
3949;SDS011;53057;50.988;6.314;2022-07-30T10:20:29;6.10;;;5.30;;
3949;SDS011;53057;50.988;6.314;2022-07-30T10:23:35;14.90;;;5.60;;
3949;SDS011;53057;50.988;6.314;2022-07-30T10:26:33;9.97;;;4.80;;
3949;SDS011;53057;50.988;6.314;2022-07-30T10:29:19;7.27;;;4.47;;
3949;SDS011;53057;50.988;6.314;2022-07-30T10:32:06;6.20;;;4.77;;
3949;SDS011;53057;50.988;6.314;2022-07-30T10:34:39;9.17;;;4.80;;
3949;SDS011;53057;50.988;6.314;2022-07-30T10:37:10;7.17;;;4.10;;
3949;SDS011;53057;50.988;6.314;2022-07-30T10:39:42;9.33;;;4.90;;
3949;SDS011;53057;50.988;6.314;2022-07-30T10:42:21;9.37;;;3.90;;
3949;SDS011;53057;50.988;6.314;2022-07-30T10:47:43;5.73;;;4.10;;
3949;SDS011;53057;50.988;6.314;2022-07-30T10:50:16;6.47;;;5.33;;
3949;SDS011;53057;50.988;6.314;2022-07-30T10:52:46;5.17;;;3.80;;
3949;SDS011;53057;50.988;6.314;2022-07-30T10:55:23;8.60;;;3.67;;
3949;SDS011;53057;50.988;6.314;2022-07-30T10:58:07;9.00;;;3.50;;
3949;SDS011;53057;50.988;6.314;2022-07-30T11:00:56;6.63;;;5.53;;
3949;SDS011;53057;50.988;6.314;2022-07-30T11:03:27;7.60;;;4.30;;
3949;SDS011;53057;50.988;6.314;2022-07-30T11:08:50;9.70;;;3.90;;
3949;SDS011;53057;50.988;6.314;2022-07-30T11:12:03;5.70;;;4.30;;
3949;SDS011;53057;50.988;6.314;2022-07-30T11:14:42;8.87;;;4.50;;
3949;SDS011;53057;50.988;6.314;2022-07-30T11:17:14;7.40;;;4.27;;
3949;SDS011;53057;50.988;6.314;2022-07-30T11:22:33;6.77;;;4.13;;
3949;SDS011;53057;50.988;6.314;2022-07-30T11:25:08;11.13;;;6.13;;
3949;SDS011;53057;50.988;6.314;2022-07-30T11:27:40;7.60;;;4.07;;
3949;SDS011;53057;50.988;6.314;2022-07-30T11:32:53;9.67;;;5.40;;
3949;SDS011;53057;50.988;6.314;2022-07-30T11:35:23;7.60;;;4.70;;
3949;SDS011;53057;50.988;6.314;2022-07-30T11:38:09;4.20;;;3.80;;
3949;SDS011;53057;50.988;6.314;2022-07-30T11:46:26;3.47;;;3.17;;
3949;SDS011;53057;50.988;6.314;2022-07-30T11:48:39;6.63;;;3.90;;
3949;SDS011;53057;50.988;6.314;2022-07-30T11:51:06;4.80;;;3.73;;
3949;SDS011;53057;50.988;6.314;2022-07-30T11:53:34;7.40;;;3.90;;
3949;SDS011;53057;50.988;6.314;2022-07-30T11:56:01;7.10;;;4.67;;
3949;SDS011;53057;50.988;6.314;2022-07-30T11:58:33;6.00;;;3.90;;
3949;SDS011;53057;50.988;6.314;2022-07-30T12:01:02;3.80;;;3.47;;
3949;SDS011;53057;50.988;6.314;2022-07-30T12:03:38;4.90;;;2.73;;
3949;SDS011;53057;50.988;6.314;2022-07-30T12:06:11;4.50;;;3.03;;
3949;SDS011;53057;50.988;6.314;2022-07-30T12:08:46;2.43;;;2.23;;
3949;SDS011;53057;50.988;6.314;2022-07-30T12:11:14;7.40;;;3.20;;
3949;SDS011;53057;50.988;6.314;2022-07-30T12:13:41;6.20;;;2.90;;
3949;SDS011;53057;50.988;6.314;2022-07-30T12:16:15;5.90;;;3.57;;
3949;SDS011;53057;50.988;6.314;2022-07-30T12:18:43;4.70;;;3.63;;
3949;SDS011;53057;50.988;6.314;2022-07-30T12:21:10;6.20;;;4.10;;
3949;SDS011;53057;50.988;6.314;2022-07-30T12:23:38;5.20;;;3.50;;
3949;SDS011;53057;50.988;6.314;2022-07-30T12:26:25;6.00;;;4.23;;
3949;SDS011;53057;50.988;6.314;2022-07-30T12:28:53;3.40;;;2.03;;
3949;SDS011;53057;50.988;6.314;2022-07-30T12:31:20;4.13;;;2.43;;
3949;SDS011;53057;50.988;6.314;2022-07-30T12:33:47;5.27;;;2.57;;
3949;SDS011;53057;50.988;6.314;2022-07-30T12:36:25;7.80;;;2.53;;
3949;SDS011;53057;50.988;6.314;2022-07-30T12:38:52;2.27;;;2.07;;
3949;SDS011;53057;50.988;6.314;2022-07-30T12:41:21;4.17;;;2.60;;
3949;SDS011;53057;50.988;6.314;2022-07-30T12:43:49;6.10;;;2.43;;
3949;SDS011;53057;50.988;6.314;2022-07-30T12:46:26;2.50;;;2.27;;
3949;SDS011;53057;50.988;6.314;2022-07-30T12:49:00;3.50;;;1.70;;
3949;SDS011;53057;50.988;6.314;2022-07-30T12:51:49;5.80;;;1.70;;
3949;SDS011;53057;50.988;6.314;2022-07-30T12:54:17;2.10;;;1.60;;
3949;SDS011;53057;50.988;6.314;2022-07-30T12:56:58;5.80;;;1.50;;
3949;SDS011;53057;50.988;6.314;2022-07-30T12:59:26;7.73;;;1.20;;
3949;SDS011;53057;50.988;6.314;2022-07-30T13:01:53;4.47;;;1.20;;
3949;SDS011;53057;50.988;6.314;2022-07-30T13:04:21;6.40;;;1.73;;
3949;SDS011;53057;50.988;6.314;2022-07-30T13:07:07;5.80;;;1.47;;
3949;SDS011;53057;50.988;6.314;2022-07-30T13:09:36;7.57;;;1.53;;
3949;SDS011;53057;50.988;6.314;2022-07-30T13:12:04;3.47;;;1.37;;
3949;SDS011;53057;50.988;6.314;2022-07-30T13:14:31;1.83;;;1.20;;
3949;SDS011;53057;50.988;6.314;2022-07-30T13:16:58;7.70;;;1.43;;
3949;SDS011;53057;50.988;6.314;2022-07-30T13:19:25;2.20;;;1.13;;
3949;SDS011;53057;50.988;6.314;2022-07-30T13:21:53;7.80;;;1.73;;
3949;SDS011;53057;50.988;6.314;2022-07-30T13:24:20;4.00;;;1.40;;
3949;SDS011;53057;50.988;6.314;2022-07-30T13:26:47;6.10;;;1.80;;
3949;SDS011;53057;50.988;6.314;2022-07-30T13:29:16;6.20;;;1.60;;
3949;SDS011;53057;50.988;6.314;2022-07-30T13:31:43;2.83;;;1.57;;
3949;SDS011;53057;50.988;6.314;2022-07-30T13:34:10;1.93;;;1.30;;
3949;SDS011;53057;50.988;6.314;2022-07-30T13:36:37;3.87;;;1.77;;
3949;SDS011;53057;50.988;6.314;2022-07-30T13:39:04;5.33;;;1.87;;
3949;SDS011;53057;50.988;6.314;2022-07-30T13:41:32;3.80;;;1.73;;
3949;SDS011;53057;50.988;6.314;2022-07-30T13:43:59;3.13;;;1.20;;
3949;SDS011;53057;50.988;6.314;2022-07-30T13:46:26;2.50;;;1.70;;
3949;SDS011;53057;50.988;6.314;2022-07-30T13:48:53;2.33;;;1.43;;
3949;SDS011;53057;50.988;6.314;2022-07-30T13:51:20;2.60;;;1.70;;
3949;SDS011;53057;50.988;6.314;2022-07-30T13:53:47;1.50;;;1.40;;
3949;SDS011;53057;50.988;6.314;2022-07-30T13:56:14;3.63;;;2.03;;
3949;SDS011;53057;50.988;6.314;2022-07-30T13:58:41;5.67;;;2.03;;
3949;SDS011;53057;50.988;6.314;2022-07-30T14:01:08;8.30;;;2.07;;
3949;SDS011;53057;50.988;6.314;2022-07-30T14:03:44;1.93;;;1.60;;
3949;SDS011;53057;50.988;6.314;2022-07-30T14:06:17;3.20;;;1.60;;
3949;SDS011;53057;50.988;6.314;2022-07-30T14:08:43;1.77;;;1.30;;
3949;SDS011;53057;50.988;6.314;2022-07-30T14:11:10;1.80;;;1.67;;
3949;SDS011;53057;50.988;6.314;2022-07-30T14:13:38;4.87;;;1.70;;
3949;SDS011;53057;50.988;6.314;2022-07-30T14:16:05;3.37;;;1.70;;
3949;SDS011;53057;50.988;6.314;2022-07-30T14:18:48;7.70;;;2.53;;
3949;SDS011;53057;50.988;6.314;2022-07-30T14:21:15;1.77;;;1.63;;
3949;SDS011;53057;50.988;6.314;2022-07-30T14:23:42;4.97;;;1.90;;
3949;SDS011;53057;50.988;6.314;2022-07-30T14:26:09;5.90;;;1.70;;
3949;SDS011;53057;50.988;6.314;2022-07-30T14:28:36;1.70;;;1.60;;
3949;SDS011;53057;50.988;6.314;2022-07-30T14:31:03;3.30;;;1.90;;
3949;SDS011;53057;50.988;6.314;2022-07-30T14:33:39;5.40;;;1.70;;
3949;SDS011;53057;50.988;6.314;2022-07-30T14:36:06;2.70;;;2.07;;
3949;SDS011;53057;50.988;6.314;2022-07-30T14:38:33;5.10;;;1.77;;
3949;SDS011;53057;50.988;6.314;2022-07-30T14:41:02;4.60;;;2.20;;
3949;SDS011;53057;50.988;6.314;2022-07-30T14:43:32;6.07;;;2.40;;
3949;SDS011;53057;50.988;6.314;2022-07-30T14:46:02;2.20;;;1.80;;
3949;SDS011;53057;50.988;6.314;2022-07-30T14:48:30;5.37;;;1.63;;
3949;SDS011;53057;50.988;6.314;2022-07-30T14:50:56;3.33;;;2.10;;
3949;SDS011;53057;50.988;6.314;2022-07-30T14:53:41;9.60;;;3.63;;
3949;SDS011;53057;50.988;6.314;2022-07-30T14:56:12;3.07;;;1.93;;
3949;SDS011;53057;50.988;6.314;2022-07-30T14:58:39;2.50;;;1.80;;
3949;SDS011;53057;50.988;6.314;2022-07-30T15:01:06;7.30;;;1.70;;
3949;SDS011;53057;50.988;6.314;2022-07-30T15:03:43;5.70;;;2.30;;
3949;SDS011;53057;50.988;6.314;2022-07-30T15:06:09;2.07;;;1.70;;
3949;SDS011;53057;50.988;6.314;2022-07-30T15:08:38;2.60;;;1.87;;
3949;SDS011;53057;50.988;6.314;2022-07-30T15:11:05;1.60;;;1.30;;
3949;SDS011;53057;50.988;6.314;2022-07-30T15:13:35;3.53;;;1.83;;
3949;SDS011;53057;50.988;6.314;2022-07-30T15:16:06;3.37;;;2.10;;
3949;SDS011;53057;50.988;6.314;2022-07-30T15:18:33;2.00;;;1.90;;
3949;SDS011;53057;50.988;6.314;2022-07-30T15:21:00;2.30;;;1.80;;
3949;SDS011;53057;50.988;6.314;2022-07-30T15:23:33;8.00;;;1.80;;
3949;SDS011;53057;50.988;6.314;2022-07-30T15:26:00;3.67;;;1.60;;
3949;SDS011;53057;50.988;6.314;2022-07-30T15:28:27;6.27;;;1.97;;
3949;SDS011;53057;50.988;6.314;2022-07-30T15:30:54;4.20;;;1.50;;
3949;SDS011;53057;50.988;6.314;2022-07-30T15:33:24;3.83;;;2.00;;
3949;SDS011;53057;50.988;6.314;2022-07-30T15:35:51;5.70;;;1.50;;